^^
Your Local Weather - Clay, NY Station Historical Data
Daily Summary for June 27, 2017 Units:  English    Metric   Both
« Previous Day
Next Day »
Daily Weekly Monthly Yearly Custom
  High: Low: Average:
Temperature: 66.2 °F 49.8 °F 56.8 °F
Dew Point: 56.0 °F 48.1 °F 51.9 °F
Humidity: 95% 60% 85%
Wind Speed: 8.0mph 0.0mph 1.2mph
Wind Gust: 15.0mph - -
Wind- - SW
Pressure: 29.97 in 29.88 in -
Precipitation: 0.13 in    
Historical Graphs
 
 
Tabular Data for June 27, 2017
Time Temperature Dew Point Pressure Wind Wind Speed Wind Gust Humidity Rainfall Rate (Hourly) solar
00:00 53.1 °F 50.8 °F 29.92 in Calm     92% 0.00 in 0 W/m2
00:06 53.2 °F 51.2 °F 29.92 in Calm     93% 0.00 in 0 W/m2
00:12 53.0 °F 51.0 °F 29.92 in Calm     93% 0.00 in 0 W/m2
00:18 52.9 °F 50.9 °F 29.92 in Calm     93% 0.00 in 0 W/m2
00:24 52.8 °F 50.8 °F 29.92 in Calm     93% 0.00 in 0 W/m2
00:30 52.8 °F 50.8 °F 29.92 in Calm     93% 0.00 in 0 W/m2
00:36 52.9 °F 50.9 °F 29.92 in Calm     93% 0.00 in 0 W/m2
00:42 52.8 °F 50.8 °F 29.92 in Calm     93% 0.00 in 0 W/m2
00:48 52.8 °F 50.8 °F 29.93 in Calm     93% 0.00 in 0 W/m2
00:54 52.8 °F 50.8 °F 29.93 in Calm     93% 0.00 in 0 W/m2
01:00 52.8 °F 50.8 °F 29.92 in Calm     93% 0.00 in 0 W/m2
01:06 52.5 °F 50.5 °F 29.92 in Calm     93% 0.00 in 0 W/m2
01:12 52.3 °F 50.3 °F 29.92 in Calm     93% 0.00 in 0 W/m2
01:18 52.1 °F 50.1 °F 29.92 in Calm     93% 0.00 in 0 W/m2
01:24 52.0 °F 50.0 °F 29.92 in Calm     93% 0.00 in 0 W/m2
01:30 51.8 °F 49.8 °F 29.92 in Calm     93% 0.00 in 0 W/m2
01:36 51.6 °F 49.6 °F 29.92 in Calm     93% 0.00 in 0 W/m2
01:42 51.5 °F 49.5 °F 29.91 in Calm     93% 0.00 in 0 W/m2
01:48 51.4 °F 49.4 °F 29.91 in Calm     93% 0.00 in 0 W/m2
01:54 51.3 °F 49.3 °F 29.91 in Calm     93% 0.00 in 0 W/m2
02:00 51.5 °F 49.5 °F 29.91 in Calm     93% 0.00 in 0 W/m2
02:06 51.7 °F 49.7 °F 29.91 in Calm     93% 0.00 in 0 W/m2
02:12 51.7 °F 49.7 °F 29.91 in Calm     93% 0.00 in 0 W/m2
02:18 51.7 °F 49.7 °F 29.91 in Calm     93% 0.00 in 0 W/m2
02:24 51.6 °F 49.6 °F 29.91 in Calm     93% 0.00 in 0 W/m2
02:30 51.4 °F 49.4 °F 29.90 in Calm     93% 0.00 in 0 W/m2
02:36 51.4 °F 49.4 °F 29.90 in Calm     93% 0.00 in 0 W/m2
03:08 51.6 °F 49.9 °F 29.90 in Calm     94% 0.00 in 0 W/m2
03:14 51.6 °F 49.9 °F 29.90 in Calm     94% 0.00 in 0 W/m2
03:20 51.4 °F 49.4 °F 29.90 in Calm     93% 0.00 in 0 W/m2
03:26 51.2 °F 49.2 °F 29.90 in Calm     93% 0.00 in 0 W/m2
03:32 51.1 °F 49.4 °F 29.90 in Calm     94% 0.00 in 0 W/m2
03:38 51.0 °F 49.3 °F 29.90 in Calm     94% 0.00 in 0 W/m2
03:44 50.8 °F 49.1 °F 29.90 in Calm     94% 0.00 in 0 W/m2
03:50 50.8 °F 49.1 °F 29.90 in Calm     94% 0.00 in 0 W/m2
03:56 50.8 °F 49.1 °F 29.90 in Calm     94% 0.00 in 0 W/m2
04:02 50.6 °F 48.9 °F 29.89 in Calm     94% 0.00 in 0 W/m2
04:08 50.6 °F 48.9 °F 29.90 in Calm     94% 0.00 in 0 W/m2
04:14 50.6 °F 48.9 °F 29.90 in Calm     94% 0.00 in 0 W/m2
04:20 50.6 °F 48.9 °F 29.90 in Calm     94% 0.00 in 0 W/m2
04:26 50.6 °F 48.9 °F 29.89 in Calm     94% 0.00 in 0 W/m2
04:32 50.6 °F 48.9 °F 29.89 in Calm     94% 0.00 in 0 W/m2
04:38 50.7 °F 49.0 °F 29.89 in Calm     94% 0.00 in 0 W/m2
04:44 50.6 °F 48.9 °F 29.89 in Calm     94% 0.00 in 0 W/m2
04:50 50.8 °F 49.1 °F 29.89 in Calm     94% 0.00 in 0 W/m2
04:56 50.6 °F 48.9 °F 29.89 in Calm     94% 0.00 in 0 W/m2
05:02 50.4 °F 48.7 °F 29.89 in Calm     94% 0.00 in 0 W/m2
05:08 50.3 °F 48.6 °F 29.89 in Calm     94% 0.00 in 0 W/m2
05:14 50.2 °F 48.5 °F 29.89 in Calm     94% 0.00 in 0 W/m2
05:20 50.2 °F 48.5 °F 29.89 in Calm     94% 0.00 in 0 W/m2
05:26 50.2 °F 48.5 °F 29.90 in Calm     94% 0.00 in 0 W/m2
05:32 49.9 °F 48.2 °F 29.90 in Calm     94% 0.00 in 5 W/m2
05:38 49.8 °F 48.1 °F 29.91 in Calm     94% 0.00 in 9 W/m2
05:44 49.8 °F 48.1 °F 29.91 in Calm     94% 0.00 in 12 W/m2
05:50 50.1 °F 48.4 °F 29.91 in Calm     94% 0.00 in 16 W/m2
05:56 50.1 °F 48.4 °F 29.91 in Calm     94% 0.00 in 19 W/m2
06:02 50.5 °F 48.8 °F 29.91 in Calm     94% 0.00 in 28 W/m2
06:08 50.7 °F 49.0 °F 29.91 in Calm     94% 0.00 in 28 W/m2
06:14 51.1 °F 49.4 °F 29.91 in Calm     94% 0.00 in 33 W/m2
06:20 51.3 °F 49.6 °F 29.91 in Calm     94% 0.00 in 49 W/m2
06:26 51.6 °F 49.9 °F 29.91 in Calm     94% 0.00 in 60 W/m2
06:32 51.9 °F 50.2 °F 29.91 in Calm     94% 0.00 in 141 W/m2
06:38 52.8 °F 51.1 °F 29.91 in Calm     94% 0.00 in 144 W/m2
06:44 53.6 °F 52.2 °F 29.91 in Calm     95% 0.00 in 130 W/m2
06:50 53.7 °F 52.3 °F 29.91 in Calm     95% 0.00 in 128 W/m2
06:56 54.0 °F 52.3 °F 29.91 in Calm     94% 0.00 in 174 W/m2
07:02 54.8 °F 53.1 °F 29.92 in Calm     94% 0.00 in 227 W/m2
07:08 55.4 °F 53.7 °F 29.92 in Calm     94% 0.00 in 63 W/m2
07:14 55.2 °F 53.5 °F 29.92 in Calm     94% 0.00 in 65 W/m2
07:20 55.2 °F 53.5 °F 29.92 in Calm     94% 0.00 in 65 W/m2
07:26 55.0 °F 53.3 °F 29.92 in Calm     94% 0.00 in 58 W/m2
07:32 54.8 °F 53.1 °F 29.92 in Calm     94% 0.00 in 47 W/m2
07:38 54.8 °F 53.1 °F 29.92 in Calm   1.0 mph 94% 0.00 in 56 W/m2
07:44 54.9 °F 53.2 °F 29.92 in Calm   1.0 mph 94% 0.00 in 56 W/m2
07:50 55.0 °F 53.3 °F 29.92 in Calm     94% 0.00 in 35 W/m2
07:56 54.7 °F 53.0 °F 29.93 in Calm   1.0 mph 94% 0.00 in 44 W/m2
08:02 54.7 °F 53.0 °F 29.93 in Calm     94% 0.00 in 42 W/m2
08:04 54.7 °F 53.0 °F 29.93 in Calm     94% 0.00 in 42 W/m2
08:10 54.7 °F 53.0 °F 29.94 in Calm     94% 0.00 in 81 W/m2
08:16 54.8 °F 53.1 °F 29.94 in Calm     94% 0.00 in 67 W/m2
08:22 55.0 °F 53.3 °F 29.94 in Calm     94% 0.00 in 39 W/m2
08:28 55.1 °F 53.4 °F 29.95 in Calm     94% 0.00 in 33 W/m2
08:34 55.1 °F 53.4 °F 29.95 in SW 1.0 mph 2.0 mph 94% 0.00 in 42 W/m2
08:40 55.3 °F 53.6 °F 29.95 in West 2.0 mph 3.0 mph 94% 0.10 in 39 W/m2
08:46 55.4 °F 53.7 °F 29.95 in WSW 2.0 mph 5.0 mph 94% 0.09 in 58 W/m2
08:52 55.4 °F 53.7 °F 29.94 in SW 2.0 mph 2.0 mph 94% 0.09 in 76 W/m2
08:58 55.5 °F 53.5 °F 29.94 in SW 1.0 mph 2.0 mph 93% 0.05 in 120 W/m2
09:04 55.5 °F 53.5 °F 29.94 in SW 1.0 mph 3.0 mph 93% 0.05 in 156 W/m2
09:10 55.7 °F 53.7 °F 29.94 in South 2.0 mph 2.0 mph 93% 0.05 in 132 W/m2
09:16 55.9 °F 53.6 °F 29.94 in South 2.0 mph 2.0 mph 92% 0.00 in 102 W/m2
09:22 55.8 °F 53.5 °F 29.94 in South 1.0 mph 1.0 mph 92% 0.00 in 114 W/m2
09:28 56.0 °F 53.4 °F 29.94 in South 1.0 mph 1.0 mph 91% 0.00 in 171 W/m2
09:34 56.2 °F 53.6 °F 29.94 in South 1.0 mph 3.0 mph 91% 0.00 in 176 W/m2
09:40 56.5 °F 53.6 °F 29.94 in South 1.0 mph 1.0 mph 90% 0.00 in 165 W/m2
09:46 57.0 °F 54.1 °F 29.94 in SSW 1.0 mph 3.0 mph 90% 0.00 in 380 W/m2
09:52 58.3 °F 55.7 °F 29.93 in SSW 2.0 mph 2.0 mph 91% 0.00 in 171 W/m2
09:58 58.2 °F 55.0 °F 29.93 in SE 2.0 mph 3.0 mph 89% 0.00 in 171 W/m2
10:04 58.3 °F 54.4 °F 29.92 in SSE 2.0 mph 2.0 mph 87% 0.00 in 302 W/m2
10:10 59.0 °F 54.5 °F 29.92 in SSE 2.0 mph 5.0 mph 85% 0.00 in 283 W/m2
10:16 59.4 °F 54.6 °F 29.92 in South 2.0 mph 5.0 mph 84% 0.00 in 417 W/m2
10:22 59.6 °F 53.8 °F 29.92 in South 3.0 mph 4.0 mph 81% 0.00 in 376 W/m2
10:28 60.8 °F 55.3 °F 29.92 in SSE 3.0 mph 4.0 mph 82% 0.00 in 835 W/m2
10:34 61.4 °F 55.2 °F 29.92 in SW 3.0 mph 7.0 mph 80% 0.00 in 860 W/m2
10:40 60.9 °F 53.6 °F 29.92 in South 3.0 mph 3.0 mph 77% 0.00 in 911 W/m2
10:46 61.7 °F 55.8 °F 29.91 in SE 3.0 mph 4.0 mph 81% 0.00 in 963 W/m2
10:52 62.5 °F 55.5 °F 29.91 in SE 3.0 mph 5.0 mph 78% 0.00 in 911 W/m2
10:58 63.0 °F 55.7 °F 29.91 in SE 2.0 mph 8.0 mph 77% 0.00 in 911 W/m2
11:04 62.4 °F 53.3 °F 29.91 in SSW 3.0 mph 3.0 mph 72% 0.00 in 220 W/m2
11:10 62.8 °F 54.0 °F 29.91 in SSW 4.0 mph 4.0 mph 73% 0.00 in 967 W/m2
11:16 63.2 °F 54.8 °F 29.91 in WSW 3.0 mph 4.0 mph 74% 0.00 in 301 W/m2
11:22 63.0 °F 53.1 °F 29.91 in SW 2.0 mph 2.0 mph 70% 0.00 in 309 W/m2
11:28 63.7 °F 53.7 °F 29.91 in SSW 3.0 mph 7.0 mph 70% 0.00 in 1139 W/m2
11:34 63.6 °F 53.6 °F 29.90 in SSE 4.0 mph 7.0 mph 70% 0.00 in 388 W/m2
11:40 64.2 °F 54.6 °F 29.90 in SW 4.0 mph 4.0 mph 71% 0.00 in 1139 W/m2
11:46 64.1 °F 54.1 °F 29.90 in SSW 3.0 mph 6.0 mph 70% 0.00 in 339 W/m2
11:52 64.2 °F 55.4 °F 29.89 in SW 3.0 mph 3.0 mph 73% 0.00 in 1062 W/m2
11:58 65.2 °F 52.7 °F 29.89 in WSW 4.0 mph 8.0 mph 64% 0.00 in 1090 W/m2
12:04 66.1 °F 56.0 °F 29.89 in SW 3.0 mph 3.0 mph 70% 0.00 in 1063 W/m2
12:10 66.1 °F 53.1 °F 29.89 in SW 2.0 mph 2.0 mph 63% 0.00 in 221 W/m2
12:16 65.2 °F 51.8 °F 29.89 in SW 3.0 mph 3.0 mph 62% 0.00 in 1187 W/m2
12:22 66.2 °F 51.9 °F 29.88 in South 2.0 mph 5.0 mph 60% 0.00 in 1083 W/m2
12:28 65.9 °F 52.1 °F 29.88 in SW 4.0 mph 9.0 mph 61% 0.00 in 283 W/m2
12:34 65.1 °F 51.3 °F 29.88 in SW 4.0 mph 9.0 mph 61% 0.00 in 172 W/m2
12:40 64.2 °F 50.5 °F 29.89 in West 4.0 mph 4.0 mph 61% 0.00 in 179 W/m2
12:46 63.7 °F 50.0 °F 29.89 in WSW 4.0 mph 5.0 mph 61% 0.00 in 107 W/m2
12:52 63.3 °F 50.9 °F 29.89 in West 2.0 mph 8.0 mph 64% 0.00 in 60 W/m2
12:58 62.4 °F 51.3 °F 29.89 in NW 2.0 mph 8.0 mph 67% 0.00 in 62 W/m2
13:04 61.0 °F 50.0 °F 29.90 in WSW 1.0 mph 4.0 mph 67% 0.00 in 42 W/m2
13:10 59.7 °F 50.7 °F 29.90 in SW 3.0 mph 3.0 mph 72% 0.00 in 42 W/m2
13:16 58.7 °F 51.2 °F 29.90 in WSW 3.0 mph 4.0 mph 76% 0.00 in 54 W/m2
13:22 58.1 °F 50.9 °F 29.89 in SW 3.0 mph 3.0 mph 77% 0.00 in 83 W/m2
13:28 58.0 °F 51.2 °F 29.89 in SW 1.0 mph 3.0 mph 78% 0.00 in 93 W/m2
13:34 58.1 °F 51.6 °F 29.89 in Calm   2.0 mph 79% 0.00 in 69 W/m2
13:40 58.1 °F 52.0 °F 29.89 in Calm     80% 0.00 in 97 W/m2
13:46 58.3 °F 52.5 °F 29.90 in WSW 1.0 mph 3.0 mph 81% 0.00 in 121 W/m2
13:52 58.4 °F 52.3 °F 29.92 in SSE 2.0 mph 3.0 mph 80% 0.00 in 33 W/m2
13:58 57.5 °F 50.0 °F 29.92 in WNW 3.0 mph 4.0 mph 76% 0.00 in 56 W/m2
14:04 56.0 °F 49.2 °F 29.93 in NW 3.0 mph 4.0 mph 78% 0.00 in 65 W/m2
14:10 55.1 °F 49.4 °F 29.92 in NW 2.0 mph 3.0 mph 81% 0.12 in 190 W/m2
14:16 54.8 °F 50.4 °F 29.92 in NW 1.0 mph 3.0 mph 85% 0.10 in 411 W/m2
14:22 55.5 °F 51.4 °F 29.92 in NW 1.0 mph 1.0 mph 86% 0.06 in 417 W/m2
14:28 55.6 °F 51.2 °F 29.92 in WNW 1.0 mph 1.0 mph 85% 0.04 in 336 W/m2
14:34 55.8 °F 51.4 °F 29.92 in WNW 1.0 mph 2.0 mph 85% 0.00 in 438 W/m2
14:40 56.8 °F 51.7 °F 29.91 in WSW 1.0 mph 1.0 mph 83% 0.00 in 926 W/m2
14:46 58.4 °F 53.3 °F 29.91 in West 1.0 mph 1.0 mph 83% 0.00 in 874 W/m2
14:52 60.1 °F 53.6 °F 29.91 in West 1.0 mph 2.0 mph 79% 0.00 in 898 W/m2
14:58 61.5 °F 52.0 °F 29.91 in SW 1.0 mph 5.0 mph 71% 0.00 in 928 W/m2
15:04 60.9 °F 52.9 °F 29.91 in SW 2.0 mph 4.0 mph 75% 0.00 in 374 W/m2
15:10 61.3 °F 51.0 °F 29.90 in WSW 2.0 mph 2.0 mph 69% 0.00 in 970 W/m2
15:16 62.6 °F 51.9 °F 29.90 in SW 3.0 mph 3.0 mph 68% 0.00 in 861 W/m2
15:22 62.9 °F 53.7 °F 29.90 in WNW 2.0 mph 3.0 mph 72% 0.00 in 840 W/m2
15:28 63.6 °F 53.2 °F 29.90 in WSW 2.0 mph 3.0 mph 69% 0.00 in 744 W/m2
15:34 63.8 °F 54.6 °F 29.90 in SW 1.0 mph 2.0 mph 72% 0.00 in 819 W/m2
15:40 63.4 °F 51.4 °F 29.90 in West 2.0 mph 3.0 mph 65% 0.00 in 802 W/m2
15:46 63.4 °F 51.8 °F 29.90 in SSW 4.0 mph 5.0 mph 66% 0.00 in 795 W/m2
15:52 64.0 °F 52.4 °F 29.90 in WSW 4.0 mph 8.0 mph 66% 0.00 in 809 W/m2
15:58 64.3 °F 51.4 °F 29.90 in South 3.0 mph 8.0 mph 63% 0.00 in 169 W/m2
16:04 63.5 °F 49.8 °F 29.90 in SSW 4.0 mph 6.0 mph 61% 0.00 in 237 W/m2
16:10 62.9 °F 50.1 °F 29.90 in WSW 3.0 mph 3.0 mph 63% 0.00 in 193 W/m2
16:16 62.8 °F 50.9 °F 29.90 in WSW 2.0 mph 3.0 mph 65% 0.00 in 178 W/m2
16:22 62.7 °F 50.8 °F 29.91 in WSW 2.0 mph 5.0 mph 65% 0.00 in 76 W/m2
16:28 61.2 °F 48.5 °F 29.92 in West 4.0 mph 15.0 mph 63% 0.00 in 18 W/m2
16:34 56.9 °F 48.3 °F 29.92 in South 8.0 mph 8.0 mph 73% 0.00 in 123 W/m2
16:40 55.1 °F 48.4 °F 29.92 in WSW 6.0 mph 6.0 mph 78% 0.00 in 134 W/m2
16:46 54.8 °F 49.1 °F 29.92 in WSW 4.0 mph 6.0 mph 81% 0.00 in 190 W/m2
16:52 55.4 °F 50.0 °F 29.92 in SW 3.0 mph 4.0 mph 82% 0.00 in 343 W/m2
16:58 57.0 °F 52.2 °F 29.91 in South 2.0 mph 4.0 mph 84% 0.00 in 369 W/m2
17:04 57.9 °F 51.8 °F 29.91 in WSW 2.0 mph 3.0 mph 80% 0.00 in 97 W/m2
17:10 58.5 °F 51.7 °F 29.91 in WSW 2.0 mph 2.0 mph 78% 0.00 in 60 W/m2
17:16 58.7 °F 51.2 °F 29.91 in SW 3.0 mph 4.0 mph 76% 0.00 in 54 W/m2
17:22 59.3 °F 52.1 °F 29.91 in SW 2.0 mph 2.0 mph 77% 0.00 in 44 W/m2
17:28 59.2 °F 51.3 °F 29.91 in SW 1.0 mph 2.0 mph 75% 0.00 in 46 W/m2
17:34 59.4 °F 51.8 °F 29.91 in SW 1.0 mph 3.0 mph 76% 0.00 in 42 W/m2
17:40 59.9 °F 52.0 °F 29.91 in WSW 1.0 mph 5.0 mph 75% 0.00 in 47 W/m2
17:46 60.1 °F 51.0 °F 29.91 in South 1.0 mph 5.0 mph 72% 0.00 in 35 W/m2
17:52 60.1 °F 51.4 °F 29.91 in WSW 2.0 mph 2.0 mph 73% 0.00 in 47 W/m2
17:58 59.8 °F 51.5 °F 29.91 in WSW 1.0 mph 2.0 mph 74% 0.00 in 56 W/m2
18:04 59.6 °F 52.0 °F 29.91 in WSW 1.0 mph 1.0 mph 76% 0.00 in 54 W/m2
18:10 59.5 °F 52.3 °F 29.91 in WSW 1.0 mph 1.0 mph 77% 0.00 in 44 W/m2
18:16 59.4 °F 52.2 °F 29.91 in WSW 1.0 mph 2.0 mph 77% 0.00 in 44 W/m2
18:22 59.3 °F 52.4 °F 29.91 in SSW 1.0 mph 1.0 mph 78% 0.00 in 105 W/m2
18:28 59.5 °F 53.3 °F 29.91 in SW 2.0 mph 4.0 mph 80% 0.00 in 248 W/m2
18:32 59.8 °F 53.3 °F 29.91 in SW 2.0 mph 2.0 mph 79% 0.00 in 223 W/m2
18:38 60.3 °F 52.3 °F 29.91 in SW 1.0 mph 2.0 mph 75% 0.00 in 149 W/m2
18:44 60.5 °F 52.9 °F 29.91 in WSW 2.0 mph 6.0 mph 76% 0.00 in 144 W/m2
18:50 60.5 °F 52.5 °F 29.91 in WSW 2.0 mph 2.0 mph 75% 0.00 in 60 W/m2
18:56 60.3 °F 52.3 °F 29.91 in WSW 1.0 mph 2.0 mph 75% 0.00 in 62 W/m2
19:02 60.0 °F 52.4 °F 29.91 in WSW 1.0 mph 2.0 mph 76% 0.00 in 46 W/m2
19:08 59.8 °F 52.6 °F 29.91 in WSW 1.0 mph 2.0 mph 77% 0.00 in 42 W/m2
19:14 59.7 °F 52.8 °F 29.91 in WSW 1.0 mph 3.0 mph 78% 0.00 in 63 W/m2
19:20 59.6 °F 53.1 °F 29.91 in WSW 1.0 mph 1.0 mph 79% 0.00 in 88 W/m2
19:26 59.5 °F 53.0 °F 29.91 in SSW 2.0 mph 3.0 mph 79% 0.00 in 107 W/m2
19:32 59.6 °F 53.1 °F 29.91 in West 3.0 mph 3.0 mph 79% 0.00 in 95 W/m2
19:38 59.6 °F 53.1 °F 29.92 in WSW 2.0 mph 3.0 mph 79% 0.00 in 91 W/m2
19:44 59.7 °F 53.2 °F 29.92 in SW 3.0 mph 4.0 mph 79% 0.00 in 70 W/m2
19:50 59.7 °F 53.2 °F 29.92 in SW 2.0 mph 2.0 mph 79% 0.00 in 53 W/m2
19:56 59.7 °F 52.8 °F 29.92 in SW 1.0 mph 4.0 mph 78% 0.00 in 40 W/m2
20:02 59.5 °F 52.6 °F 29.92 in SSW 2.0 mph 2.0 mph 78% 0.00 in 26 W/m2
20:08 59.4 °F 52.5 °F 29.92 in SSW 1.0 mph 2.0 mph 78% 0.00 in 19 W/m2
20:14 59.3 °F 52.8 °F 29.92 in Calm   1.0 mph 79% 0.00 in 11 W/m2
20:20 59.2 °F 52.7 °F 29.92 in Calm     79% 0.00 in 7 W/m2
20:26 59.1 °F 52.9 °F 29.92 in SSW 1.0 mph 2.0 mph 80% 0.00 in 0 W/m2
20:32 59.1 °F 53.6 °F 29.93 in SSW 1.0 mph 1.0 mph 82% 0.81 in 9 W/m2
20:38 58.9 °F 54.1 °F 29.92 in Calm   1.0 mph 84% 0.13 in 26 W/m2
20:44 58.2 °F 53.4 °F 29.92 in Calm   3.0 mph 84% 0.06 in 18 W/m2
20:50 57.9 °F 53.7 °F 29.92 in SSW 1.0 mph 1.0 mph 86% 0.04 in 5 W/m2
20:58 57.7 °F 53.9 °F 29.93 in Calm   1.0 mph 87% 0.00 in 0 W/m2
21:04 57.6 °F 54.1 °F 29.92 in Calm     88% 0.00 in 0 W/m2
21:10 57.5 °F 54.0 °F 29.93 in Calm   1.0 mph 88% 0.00 in 0 W/m2
21:16 57.3 °F 54.1 °F 29.93 in Calm   1.0 mph 89% 0.00 in 0 W/m2
21:22 57.3 °F 54.1 °F 29.93 in SSW 1.0 mph 1.0 mph 89% 0.00 in 0 W/m2
21:28 57.2 °F 54.3 °F 29.93 in SSW 1.0 mph 2.0 mph 90% 0.00 in 0 W/m2
21:34 57.1 °F 54.2 °F 29.94 in SSW 1.0 mph 2.0 mph 90% 0.00 in 0 W/m2
21:40 57.0 °F 54.1 °F 29.94 in SSW 1.0 mph 1.0 mph 90% 0.00 in 0 W/m2
21:46 56.9 °F 54.0 °F 29.94 in SSW 1.0 mph 2.0 mph 90% 0.00 in 0 W/m2
21:52 56.8 °F 53.9 °F 29.94 in SSW 1.0 mph 1.0 mph 90% 0.00 in 0 W/m2
21:58 56.8 °F 53.9 °F 29.94 in Calm   1.0 mph 90% 0.00 in 0 W/m2
22:04 56.8 °F 54.2 °F 29.94 in SSW 1.0 mph 3.0 mph 91% 0.00 in 0 W/m2
22:10 56.8 °F 54.2 °F 29.94 in SSW 1.0 mph 1.0 mph 91% 0.00 in 0 W/m2
22:16 56.8 °F 54.2 °F 29.94 in SSW 1.0 mph 1.0 mph 91% 0.00 in 0 W/m2
22:22 56.8 °F 54.2 °F 29.94 in Calm   1.0 mph 91% 0.00 in 0 W/m2
22:28 56.9 °F 54.3 °F 29.94 in SSW 1.0 mph 2.0 mph 91% 0.00 in 0 W/m2
22:34 57.0 °F 54.4 °F 29.95 in WSW 2.0 mph 4.0 mph 91% 0.00 in 0 W/m2
22:40 56.9 °F 54.3 °F 29.95 in WSW 2.0 mph 2.0 mph 91% 0.00 in 0 W/m2
22:46 56.8 °F 53.9 °F 29.95 in WSW 2.0 mph 3.0 mph 90% 0.00 in 0 W/m2
22:52 56.8 °F 53.9 °F 29.95 in WSW 2.0 mph 2.0 mph 90% 0.00 in 0 W/m2
22:58 56.6 °F 53.7 °F 29.95 in WSW 1.0 mph 2.0 mph 90% 0.00 in 0 W/m2
23:04 56.4 °F 53.5 °F 29.95 in WSW 2.0 mph 2.0 mph 90% 0.00 in 0 W/m2
23:10 56.2 °F 53.3 °F 29.95 in WSW 1.0 mph 1.0 mph 90% 0.00 in 0 W/m2
23:16 56.0 °F 53.1 °F 29.95 in Calm   2.0 mph 90% 0.00 in 0 W/m2
23:22 55.9 °F 53.0 °F 29.96 in WSW 1.0 mph 2.0 mph 90% 0.00 in 0 W/m2
23:28 55.8 °F 52.9 °F 29.96 in WSW 2.0 mph 2.0 mph 90% 0.00 in 0 W/m2
23:34 55.7 °F 52.8 °F 29.96 in SW 2.0 mph 3.0 mph 90% 0.00 in 0 W/m2
23:40 55.7 °F 52.8 °F 29.97 in SW 2.0 mph 2.0 mph 90% 0.00 in 0 W/m2
23:46 55.6 °F 52.7 °F 29.97 in SW 1.0 mph 2.0 mph 90% 0.00 in 0 W/m2
23:52 55.5 °F 52.6 °F 29.97 in SW 1.0 mph 1.0 mph 90% 0.00 in 0 W/m2
23:58 55.5 °F 52.6 °F 29.97 in WSW 1.0 mph 1.0 mph 90% 0.00 in 0 W/m2
Country Meadow, Clay, NY, USA
Compliments of Weather Underground - 2 mb